Portada
METAR-TAF:

METAR-TAF

Aeroports :

Vientiane, Laos

latitud: 17-57N, longitud: 102-34E, altitud: 171 m

Observació

L'informe es va fer fa 40 minuts, a les 05:00 UTC
Vent 4 kt del Sud-Est
Temperatura 31°C
Humitat 71%
Pressió 1010 hPa
Visibilitat: 8000 m
Núvols disperses a una alçada de 1600 ft
Cel ennuvolat a una alçada de 5000 ft

METAR: VLVT 220500Z 14004KT 8000 SCT016 BKN050 31/25 Q1010 NOSIG

Hora: 12:40 (05:40 UTC)

Pronòstic

L'informe es va fer fa 40 minuts, a les 05:00 UTC
Pronòstic vàlid del 22 a les 06 UTC al 23 a les 06 UTC
Vent 4 kt del Oest
Visibilitat: 8000 m
Núvols disperses a una alçada de 1600 ft
Cel ennuvolat a una alçada de 8300 ft
Temporalment
l' 22 a les 06 UTC al 22 a les 10 UTC
Visibilitat: 3000 m
Núvols disperses a una alçada de 1000 ft
Escasses núvols a una alçada de 2700 ft, Cumulonimbus.
Cel ennuvolat a una alçada de 4000 ft
tempesta, pluja

TAF: VLVT 220500Z 2206/2306 27004KT 8000 SCT016 BKN083 TEMPO 2206/2210 3000 TSRA SCT010 FEW027CB BKN040

Observacions i pronòstics meteorològics de més de 4000 aeroports (METAR i TAF).

Les estacions disponibles són els punts grocs i vermells al mapa.

Posi el ratolí al punt desitjat per veure el nom de l'estació.

Feu clic per veure les observacions i els pronòstics meteorològics.

Per canviar el mapa: feu clic els botons verds amb una creu de color negre per apropar; al botó verd amb un guió per allunyar la imatge; o en les fletxes verdes per a mapes adjacents.


METAR-TAF: